createdAt,value
2023-03-02T00:00:42.003Z,0.00
2023-03-02T00:01:42.004Z,0.00
2023-03-02T00:02:42.067Z,0.00
2023-03-02T00:03:42.028Z,0.00
2023-03-02T00:04:42.007Z,0.00
2023-03-02T00:05:41.894Z,0.00
2023-03-02T00:06:42.008Z,0.00
2023-03-02T00:07:41.892Z,0.00
2023-03-02T00:08:41.891Z,0.00
2023-03-02T00:09:41.887Z,0.00
2023-03-02T00:10:41.889Z,0.00
2023-03-02T00:11:41.890Z,0.00
2023-03-02T00:12:41.889Z,0.00
2023-03-02T00:13:41.891Z,0.00
2023-03-02T00:14:41.773Z,0.00
2023-03-02T00:15:41.813Z,0.00
2023-03-02T00:16:41.773Z,0.00
2023-03-02T00:17:41.776Z,0.00
2023-03-02T00:18:41.905Z,0.00
2023-03-02T00:19:41.784Z,0.00
2023-03-02T00:20:41.776Z,0.00
2023-03-02T00:21:41.800Z,0.00
2023-03-02T00:22:41.778Z,0.00
2023-03-02T00:23:42.135Z,0.00
2023-03-02T00:24:41.657Z,0.00
2023-03-02T00:25:41.657Z,0.00
2023-03-02T00:26:41.657Z,0.00
2023-03-02T00:27:41.663Z,0.00
2023-03-02T00:28:41.669Z,0.00
2023-03-02T00:29:41.673Z,0.00
2023-03-02T00:30:41.655Z,0.00
2023-03-02T00:31:41.683Z,0.00
2023-03-02T00:32:41.541Z,0.00
2023-03-02T00:33:41.659Z,0.00
2023-03-02T00:34:41.541Z,0.00
2023-03-02T00:35:41.647Z,0.00
2023-03-02T00:36:41.736Z,0.00
2023-03-02T00:37:41.537Z,0.00
2023-03-02T00:38:41.537Z,0.00
2023-03-02T00:39:41.542Z,0.00
2023-03-02T00:40:41.537Z,0.00
2023-03-02T00:41:41.420Z,0.00
2023-03-02T00:42:41.421Z,0.00
2023-03-02T00:43:41.420Z,0.00
2023-03-02T00:44:41.423Z,0.00
2023-03-02T00:45:41.420Z,0.00
2023-03-02T00:46:41.506Z,0.00
2023-03-02T00:47:42.236Z,0.00
2023-03-02T00:48:41.421Z,0.00
2023-03-02T00:49:41.423Z,0.00
2023-03-02T00:50:41.367Z,0.00
2023-03-02T00:51:41.308Z,0.00
2023-03-02T00:52:41.304Z,0.00
2023-03-02T00:53:41.306Z,0.00
2023-03-02T00:54:41.308Z,0.00
2023-03-02T00:55:41.303Z,0.00
2023-03-02T00:56:41.307Z,0.00
2023-03-02T00:57:41.308Z,0.00
2023-03-02T00:58:41.304Z,0.00
2023-03-02T00:59:41.187Z,0.00
2023-03-02T01:00:41.185Z,0.00
2023-03-02T01:01:41.187Z,0.00
2023-03-02T01:02:41.237Z,0.00
2023-03-02T01:03:41.197Z,0.00
2023-03-02T01:04:41.191Z,0.00
2023-03-02T01:05:41.191Z,0.00
2023-03-02T01:06:41.192Z,0.00
2023-03-02T01:07:41.191Z,0.00
2023-03-02T01:08:41.074Z,0.00
2023-03-02T01:09:41.077Z,0.00
2023-03-02T01:10:41.074Z,0.00
2023-03-02T01:11:41.077Z,0.00
2023-03-02T01:12:41.078Z,0.00
2023-03-02T01:13:41.075Z,0.00
2023-03-02T01:14:41.081Z,0.00
2023-03-02T01:15:41.083Z,0.00
2023-03-02T01:16:41.133Z,0.00
2023-03-02T01:17:41.092Z,0.00
2023-03-02T01:18:40.961Z,0.00
2023-03-02T01:19:40.967Z,0.00
2023-03-02T01:20:40.965Z,0.00
2023-03-02T01:21:40.962Z,0.00
2023-03-02T01:22:40.963Z,0.00
2023-03-02T01:23:40.968Z,0.00
2023-03-02T01:24:40.978Z,0.00
2023-03-02T01:25:40.967Z,0.00
2023-03-02T01:26:40.845Z,0.00
2023-03-02T01:27:40.845Z,0.00
2023-03-02T01:28:40.845Z,0.00
2023-03-02T01:29:40.847Z,0.00
2023-03-02T01:30:40.853Z,0.00
2023-03-02T01:31:40.883Z,0.00
2023-03-02T01:32:40.856Z,0.00
2023-03-02T01:33:40.847Z,0.00
2023-03-02T01:34:40.847Z,0.00
2023-03-02T01:35:40.800Z,0.00
2023-03-02T01:36:40.733Z,0.00
2023-03-02T01:37:40.737Z,0.00
2023-03-02T01:38:40.814Z,0.00
2023-03-02T01:39:40.733Z,0.00
2023-03-02T01:40:40.729Z,0.00
2023-03-02T01:41:40.732Z,0.00
2023-03-02T01:42:40.736Z,0.00
2023-03-02T01:43:40.731Z,0.00
2023-03-02T01:44:40.614Z,0.00
2023-03-02T01:45:40.642Z,0.00
2023-03-02T01:46:40.612Z,0.00
2023-03-02T01:47:40.612Z,0.00
2023-03-02T01:48:40.611Z,0.00
2023-03-02T01:49:40.613Z,0.00
2023-03-02T01:50:40.610Z,0.00
2023-03-02T01:51:40.616Z,0.00
2023-03-02T01:52:40.621Z,0.00
2023-03-02T01:53:40.612Z,0.00
2023-03-02T01:54:40.498Z,0.00
2023-03-02T01:55:40.500Z,0.00
2023-03-02T01:56:40.498Z,0.00
2023-03-02T01:57:40.494Z,0.00
2023-03-02T01:58:40.497Z,0.00
2023-03-02T01:59:40.505Z,0.00
2023-03-02T02:00:40.535Z,0.00
2023-03-02T02:01:40.379Z,0.00
2023-03-02T02:02:40.379Z,0.00
2023-03-02T02:03:40.460Z,0.00
2023-03-02T02:04:40.380Z,0.00
2023-03-02T02:05:40.381Z,0.00
2023-03-02T02:06:40.379Z,0.00
2023-03-02T02:07:40.380Z,0.00
2023-03-02T02:08:40.380Z,0.00
2023-03-02T02:09:40.401Z,0.00
2023-03-02T02:10:40.283Z,0.00
2023-03-02T02:11:40.260Z,0.00
2023-03-02T02:12:40.285Z,0.00
2023-03-02T02:13:40.266Z,0.00
2023-03-02T02:14:40.263Z,0.00
2023-03-02T02:15:40.274Z,0.00
2023-03-02T02:16:40.298Z,0.00
2023-03-02T02:17:40.268Z,0.00
2023-03-02T02:18:40.267Z,0.00
2023-03-02T02:19:40.271Z,0.00
2023-03-02T02:20:40.180Z,0.00
2023-03-02T02:21:40.142Z,0.00
2023-03-02T02:22:40.145Z,0.00
2023-03-02T02:23:40.144Z,0.00
2023-03-02T02:24:40.163Z,0.00
2023-03-02T02:25:40.161Z,0.00
2023-03-02T02:26:40.148Z,0.00
2023-03-02T02:27:40.148Z,0.00
2023-03-02T02:28:40.028Z,0.00
2023-03-02T02:29:40.150Z,0.00
2023-03-02T02:30:40.032Z,0.00
2023-03-02T02:31:40.088Z,0.00
2023-03-02T02:32:40.075Z,0.00
2023-03-02T02:33:40.032Z,0.00
2023-03-02T02:34:40.042Z,0.00
2023-03-02T02:35:40.112Z,0.00
2023-03-02T02:36:40.031Z,0.00
2023-03-02T02:37:39.942Z,0.00
2023-03-02T02:38:39.912Z,0.00
2023-03-02T02:39:39.921Z,0.00
2023-03-02T02:40:39.913Z,0.00
2023-03-02T02:41:39.915Z,0.00
2023-03-02T02:42:39.913Z,0.00
2023-03-02T02:43:39.921Z,0.00
2023-03-02T02:44:39.911Z,0.00
2023-03-02T02:45:40.070Z,0.00
2023-03-02T02:46:39.794Z,0.00
2023-03-02T02:47:39.802Z,0.00
2023-03-02T02:48:39.795Z,0.00
2023-03-02T02:49:39.803Z,0.00
2023-03-02T02:50:39.799Z,0.00
2023-03-02T02:51:39.797Z,0.00
2023-03-02T02:52:39.796Z,0.00
2023-03-02T02:53:39.799Z,0.00
2023-03-02T02:54:39.797Z,0.00
2023-03-02T02:55:39.681Z,0.00
2023-03-02T02:56:39.718Z,0.00
2023-03-02T02:57:39.677Z,0.00
2023-03-02T02:58:39.680Z,0.00
2023-03-02T02:59:39.684Z,0.00
2023-03-02T03:00:39.679Z,0.00
2023-03-02T03:01:39.763Z,0.00
2023-03-02T03:02:39.678Z,0.00
2023-03-02T03:03:39.684Z,0.00
2023-03-02T03:04:39.686Z,0.00
2023-03-02T03:05:39.562Z,0.00
2023-03-02T03:06:39.560Z,0.00
2023-03-02T03:07:39.562Z,0.00
2023-03-02T03:08:39.562Z,0.00
2023-03-02T03:09:39.613Z,0.00
2023-03-02T03:10:39.562Z,0.00
2023-03-02T03:11:39.563Z,0.00
2023-03-02T03:12:39.566Z,0.00
2023-03-02T03:13:39.452Z,0.00
2023-03-02T03:14:39.476Z,0.00
2023-03-02T03:15:39.447Z,0.00
2023-03-02T03:16:39.468Z,0.00
2023-03-02T03:17:39.446Z,0.00
2023-03-02T03:18:39.442Z,0.00
2023-03-02T03:19:39.453Z,0.00
2023-03-02T03:20:39.444Z,0.00
2023-03-02T03:21:39.444Z,0.00
2023-03-02T03:22:39.360Z,0.00
2023-03-02T03:23:39.328Z,0.00
2023-03-02T03:24:39.326Z,0.00
2023-03-02T03:25:41.521Z,0.00
2023-03-02T03:26:39.343Z,0.00
2023-03-02T03:27:39.323Z,0.00
2023-03-02T03:28:39.324Z,0.00
2023-03-02T03:29:39.333Z,0.00
2023-03-02T03:30:39.395Z,0.00
2023-03-02T03:31:39.211Z,0.00
2023-03-02T03:32:39.210Z,0.00
2023-03-02T03:33:39.204Z,0.00
2023-03-02T03:34:39.208Z,0.00
2023-03-02T03:35:39.226Z,0.00
2023-03-02T03:36:39.211Z,0.00
2023-03-02T03:37:39.206Z,0.00
2023-03-02T03:38:39.209Z,0.00
2023-03-02T03:39:39.206Z,0.00
2023-03-02T03:40:39.087Z,0.00
2023-03-02T03:41:39.085Z,0.00
2023-03-02T03:42:39.085Z,0.00
2023-03-02T03:43:39.091Z,0.00
2023-03-02T03:44:39.094Z,0.00
2023-03-02T03:45:39.086Z,0.00
2023-03-02T03:46:39.092Z,0.00
2023-03-02T03:47:39.093Z,0.00
2023-03-02T03:48:39.097Z,0.00
2023-03-02T03:49:39.088Z,0.00
2023-03-02T03:50:46.889Z,0.00
2023-03-02T03:51:38.968Z,0.00
2023-03-02T03:52:39.689Z,0.00
2023-03-02T03:53:38.969Z,0.00
2023-03-02T03:54:38.970Z,0.00
2023-03-02T03:55:38.969Z,0.00
2023-03-02T03:56:38.967Z,0.00
2023-03-02T03:57:38.972Z,0.00
2023-03-02T03:58:38.945Z,0.00
2023-03-02T03:59:38.976Z,0.00
2023-03-02T04:00:38.854Z,0.00
2023-03-02T04:01:39.001Z,0.00
2023-03-02T04:02:38.937Z,0.00
2023-03-02T04:03:38.851Z,0.00
2023-03-02T04:04:38.869Z,0.00
2023-03-02T04:05:38.855Z,0.00
2023-03-02T04:06:38.862Z,0.00
2023-03-02T04:07:38.732Z,0.00
2023-03-02T04:08:38.736Z,0.00
2023-03-02T04:09:38.741Z,0.00
2023-03-02T04:10:38.734Z,0.00
2023-03-02T04:11:38.748Z,0.00
2023-03-02T04:12:38.750Z,0.00
2023-03-02T04:13:38.733Z,0.00
2023-03-02T04:14:38.738Z,0.00
2023-03-02T04:15:38.779Z,0.00
2023-03-02T04:16:38.617Z,0.00
2023-03-02T04:17:38.617Z,0.00
2023-03-02T04:18:38.619Z,0.00
2023-03-02T04:19:38.617Z,0.00
2023-03-02T04:20:38.623Z,0.00
2023-03-02T04:21:38.616Z,0.00
2023-03-02T04:22:38.617Z,0.00
2023-03-02T04:23:38.622Z,0.00
2023-03-02T04:24:38.616Z,0.00
2023-03-02T04:25:38.621Z,0.00
2023-03-02T04:26:38.513Z,0.00
2023-03-02T04:27:38.505Z,0.00
2023-03-02T04:28:38.505Z,0.00
2023-03-02T04:29:38.505Z,0.00
2023-03-02T04:30:38.507Z,0.00
2023-03-02T04:31:38.508Z,0.00
2023-03-02T04:32:38.511Z,0.00
2023-03-02T04:33:38.509Z,0.00
2023-03-02T04:34:38.404Z,0.00
2023-03-02T04:35:38.911Z,0.00
2023-03-02T04:36:38.731Z,0.00
2023-03-02T04:37:38.400Z,0.00
2023-03-02T04:38:38.397Z,0.00
2023-03-02T04:39:38.398Z,0.00
2023-03-02T04:40:38.400Z,0.00
2023-03-02T04:41:38.395Z,0.00
2023-03-02T04:42:38.399Z,0.00
2023-03-02T04:43:38.279Z,0.00
2023-03-02T04:44:38.282Z,0.00
2023-03-02T04:45:38.294Z,0.00
2023-03-02T04:46:38.316Z,0.00
2023-03-02T04:47:38.281Z,0.00
2023-03-02T04:48:38.281Z,0.00
2023-03-02T04:49:38.285Z,0.00
2023-03-02T04:50:38.887Z,0.00
2023-03-02T04:51:38.288Z,0.00
2023-03-02T04:52:38.165Z,0.00
2023-03-02T04:53:38.164Z,0.00
2023-03-02T04:54:38.285Z,0.00
2023-03-02T04:55:38.167Z,0.00
2023-03-02T04:56:38.179Z,0.00
2023-03-02T04:57:38.170Z,0.00
2023-03-02T04:58:38.173Z,0.00
2023-03-02T04:59:38.204Z,0.00
2023-03-02T05:00:38.175Z,0.00
2023-03-02T05:01:38.055Z,0.00
2023-03-02T05:02:38.154Z,0.00
2023-03-02T05:03:38.057Z,0.00
2023-03-02T05:04:38.154Z,0.00
2023-03-02T05:05:38.051Z,0.00
2023-03-02T05:06:38.049Z,0.00
2023-03-02T05:07:38.049Z,0.00
2023-03-02T05:08:38.050Z,0.00
2023-03-02T05:09:38.049Z,0.00
2023-03-02T05:10:37.938Z,0.00
2023-03-02T05:11:38.051Z,0.00
2023-03-02T05:12:44.412Z,0.00
2023-03-02T05:13:37.937Z,0.00
2023-03-02T05:14:37.941Z,0.00
2023-03-02T05:15:38.660Z,0.00
2023-03-02T05:16:38.002Z,0.00
2023-03-02T05:17:37.938Z,0.00
2023-03-02T05:18:37.935Z,0.00
2023-03-02T05:19:37.814Z,0.00
2023-03-02T05:20:37.820Z,0.00
2023-03-02T05:21:37.815Z,0.00
2023-03-02T05:22:37.821Z,0.00
2023-03-02T05:23:37.819Z,0.00
2023-03-02T05:24:37.817Z,0.00
2023-03-02T05:25:37.820Z,0.00
2023-03-02T05:26:37.816Z,0.00
2023-03-02T05:27:37.830Z,0.00
2023-03-02T05:28:37.698Z,0.00
2023-03-02T05:29:37.700Z,0.00
2023-03-02T05:30:38.043Z,0.00
2023-03-02T05:31:37.732Z,0.00
2023-03-02T05:32:37.748Z,0.00
2023-03-02T05:33:37.701Z,0.00
2023-03-02T05:34:37.702Z,0.00
2023-03-02T05:35:37.749Z,0.00
2023-03-02T05:36:37.829Z,0.00
2023-03-02T05:37:37.582Z,1.00
2023-03-02T05:38:37.585Z,0.00
2023-03-02T05:39:37.580Z,0.00
2023-03-02T05:40:37.601Z,0.00
2023-03-02T05:41:37.581Z,0.00
2023-03-02T05:42:37.583Z,1.00
2023-03-02T05:43:37.504Z,1.00
2023-03-02T05:44:37.583Z,0.00
2023-03-02T05:45:37.582Z,0.00
2023-03-02T05:46:37.501Z,0.00
2023-03-02T05:47:37.470Z,0.00
2023-03-02T05:48:37.468Z,1.00
2023-03-02T05:49:37.464Z,0.00
2023-03-02T05:50:37.464Z,1.00
2023-03-02T05:51:37.353Z,1.00
2023-03-02T05:52:37.347Z,2.00
2023-03-02T05:53:37.346Z,5.00
2023-03-02T05:54:37.347Z,4.00
2023-03-02T05:55:37.441Z,2.00
2023-03-02T05:56:37.346Z,5.00
2023-03-02T05:57:37.352Z,8.00
2023-03-02T05:58:37.351Z,9.00
2023-03-02T05:59:37.347Z,11.00
2023-03-02T06:00:37.228Z,8.00
2023-03-02T06:01:37.283Z,13.00
2023-03-02T06:02:37.239Z,18.00
2023-03-02T06:03:37.243Z,22.00
2023-03-02T06:04:37.230Z,27.00
2023-03-02T06:05:37.251Z,30.00
2023-03-02T06:06:37.415Z,34.00
2023-03-02T06:07:37.230Z,39.00
2023-03-02T06:08:37.228Z,47.00
2023-03-02T06:09:37.233Z,55.00
2023-03-02T06:10:37.127Z,69.00
2023-03-02T06:11:37.111Z,75.00
2023-03-02T06:12:37.116Z,84.00
2023-03-02T06:13:37.108Z,93.00
2023-03-02T06:14:37.110Z,107.00
2023-03-02T06:15:37.120Z,119.00
2023-03-02T06:16:37.142Z,130.00
2023-03-02T06:17:37.114Z,143.00
2023-03-02T06:18:37.149Z,157.00
2023-03-02T06:19:37.110Z,178.00
2023-03-02T06:20:36.992Z,189.00
2023-03-02T06:21:37.003Z,204.00
2023-03-02T06:22:36.994Z,225.00
2023-03-02T06:23:36.994Z,241.00
2023-03-02T06:24:37.000Z,261.00
2023-03-02T06:25:37.003Z,279.00
2023-03-02T06:26:36.997Z,305.00
2023-03-02T06:27:36.889Z,321.00
2023-03-02T06:28:49.758Z,346.00
2023-03-02T06:29:36.912Z,364.00
2023-03-02T06:30:36.876Z,389.00
2023-03-02T06:31:37.065Z,415.00
2023-03-02T06:32:36.938Z,442.00
2023-03-02T06:33:36.884Z,460.00
2023-03-02T06:34:36.882Z,484.00
2023-03-02T06:35:36.977Z,510.00
2023-03-02T06:36:36.962Z,535.00
2023-03-02T06:37:36.763Z,563.00
2023-03-02T06:38:36.778Z,592.00
2023-03-02T06:39:36.760Z,616.00
2023-03-02T06:40:36.762Z,645.00
2023-03-02T06:41:36.768Z,671.00
2023-03-02T06:42:36.763Z,697.00
2023-03-02T06:43:36.764Z,730.00
2023-03-02T06:44:36.765Z,757.00
2023-03-02T06:45:36.666Z,776.00
2023-03-02T06:46:36.655Z,805.00
2023-03-02T06:47:36.645Z,803.00
2023-03-02T06:48:36.886Z,888.00
2023-03-02T06:49:36.646Z,888.00
2023-03-02T06:50:36.646Z,913.00
2023-03-02T06:51:36.660Z,935.00
2023-03-02T06:52:36.658Z,949.00
2023-03-02T06:53:36.682Z,1006.00
2023-03-02T06:54:36.535Z,1019.00
2023-03-02T06:55:36.534Z,1036.00
2023-03-02T06:56:36.730Z,1071.00
2023-03-02T06:57:36.532Z,1096.00
2023-03-02T06:58:36.529Z,1120.00
2023-03-02T06:59:36.532Z,1141.00
2023-03-02T07:00:36.533Z,1167.00
2023-03-02T07:01:36.771Z,1187.00
2023-03-02T07:02:36.530Z,1210.00
2023-03-02T07:03:36.485Z,1232.00
2023-03-02T07:04:36.563Z,1257.00
2023-03-02T07:05:36.416Z,1282.00
2023-03-02T07:06:36.415Z,1311.00
2023-03-02T07:07:36.413Z,1319.00
2023-03-02T07:08:36.416Z,1320.00
2023-03-02T07:09:36.411Z,1357.00
2023-03-02T07:10:36.412Z,1343.00
2023-03-02T07:11:36.417Z,1382.00
2023-03-02T07:12:36.298Z,1502.00
2023-03-02T07:13:36.291Z,1603.00
2023-03-02T07:14:36.290Z,1569.00
2023-03-02T07:15:36.301Z,1528.00
2023-03-02T07:16:36.369Z,1522.00
2023-03-02T07:17:36.299Z,1530.00
2023-03-02T07:18:36.311Z,1547.00
2023-03-02T07:19:36.291Z,1565.00
2023-03-02T07:20:36.292Z,1586.00
2023-03-02T07:21:36.183Z,1613.00
2023-03-02T07:22:36.182Z,1635.00
2023-03-02T07:23:36.181Z,1642.00
2023-03-02T07:24:36.176Z,1661.00
2023-03-02T07:25:36.176Z,1694.00
2023-03-02T07:26:36.176Z,1710.00
2023-03-02T07:27:36.175Z,1728.00
2023-03-02T07:28:36.176Z,1748.00
2023-03-02T07:29:36.182Z,1766.00
2023-03-02T07:30:36.155Z,1783.00
2023-03-02T07:31:36.056Z,1798.00
2023-03-02T07:32:36.187Z,1822.00
2023-03-02T07:33:36.182Z,1846.00
2023-03-02T07:34:36.058Z,1880.00
2023-03-02T07:35:36.104Z,1891.00
2023-03-02T07:36:36.059Z,1902.00
2023-03-02T07:37:36.069Z,1762.00
2023-03-02T07:38:36.060Z,1628.00
2023-03-02T07:39:36.060Z,2715.00
2023-03-02T07:40:36.066Z,4026.00
2023-03-02T07:41:35.941Z,3127.00
2023-03-02T07:42:35.946Z,2483.00
2023-03-02T07:43:35.946Z,2238.00
2023-03-02T07:44:35.940Z,2133.00
2023-03-02T07:45:35.943Z,2100.00
2023-03-02T07:46:36.011Z,2096.00
2023-03-02T07:47:35.944Z,2112.00
2023-03-02T07:48:35.959Z,2126.00
2023-03-02T07:49:35.947Z,2146.00
2023-03-02T07:50:35.830Z,2141.00
2023-03-02T07:51:35.830Z,2158.00
2023-03-02T07:52:35.827Z,2196.00
2023-03-02T07:53:35.828Z,2211.00
2023-03-02T07:54:35.833Z,2228.00
2023-03-02T07:55:35.830Z,2245.00
2023-03-02T07:56:35.832Z,2266.00
2023-03-02T07:57:35.831Z,2282.00
2023-03-02T07:58:35.721Z,2299.00
2023-03-02T07:59:35.709Z,2315.00
2023-03-02T08:00:35.711Z,2333.00
2023-03-02T08:01:36.007Z,2347.00
2023-03-02T08:02:35.771Z,2364.00
2023-03-02T08:03:35.712Z,2380.00
2023-03-02T08:04:35.713Z,2396.00
2023-03-02T08:05:35.713Z,2410.00
2023-03-02T08:06:35.598Z,2434.00
2023-03-02T08:07:35.597Z,2454.00
2023-03-02T08:08:35.597Z,2475.00
2023-03-02T08:09:35.594Z,2492.00
2023-03-02T08:10:35.714Z,2511.00
2023-03-02T08:11:35.762Z,2530.00
2023-03-02T08:12:35.599Z,2545.00
2023-03-02T08:13:35.597Z,2569.00
2023-03-02T08:14:35.599Z,2577.00
2023-03-02T08:15:35.606Z,2599.00
2023-03-02T08:16:35.550Z,2608.00
2023-03-02T08:17:35.480Z,2622.00
2023-03-02T08:18:35.496Z,2638.00
2023-03-02T08:19:35.478Z,2653.00
2023-03-02T08:20:35.481Z,2669.00
2023-03-02T08:21:35.672Z,2686.00
2023-03-02T08:22:35.484Z,2700.00
2023-03-02T08:23:35.535Z,2715.00
2023-03-02T08:24:35.364Z,2734.00
2023-03-02T08:25:35.484Z,2753.00
2023-03-02T08:26:35.366Z,2770.00
2023-03-02T08:27:35.373Z,2789.00
2023-03-02T08:28:35.369Z,2810.00
2023-03-02T08:29:35.377Z,2828.00
2023-03-02T08:30:35.370Z,2843.00
2023-03-02T08:31:35.819Z,2861.00
2023-03-02T08:32:35.405Z,2880.00
2023-03-02T08:33:35.249Z,2897.00
2023-03-02T08:34:35.374Z,2906.00
2023-03-02T08:35:35.261Z,2921.00
2023-03-02T08:36:35.409Z,2959.00
2023-03-02T08:37:35.255Z,2987.00
2023-03-02T08:38:35.257Z,3022.00
2023-03-02T08:39:35.258Z,3066.00
2023-03-02T08:40:35.252Z,3104.00
2023-03-02T08:41:35.613Z,3104.00
2023-03-02T08:42:35.137Z,3043.00
2023-03-02T08:43:35.155Z,3097.00
2023-03-02T08:44:35.134Z,3205.00
2023-03-02T08:45:35.184Z,3071.00
2023-03-02T08:46:35.134Z,1240.00
2023-03-02T08:47:35.135Z,3361.00
2023-03-02T08:48:35.131Z,13619.00
2023-03-02T08:49:35.134Z,14527.00
2023-03-02T08:50:35.374Z,12317.00
2023-03-02T08:51:35.336Z,12606.00
2023-03-02T08:52:35.014Z,14528.00
2023-03-02T08:53:35.016Z,15335.00
2023-03-02T08:54:35.010Z,13685.00
2023-03-02T08:55:35.017Z,12347.00
2023-03-02T08:56:35.320Z,12569.00
2023-03-02T08:57:35.016Z,14705.00
2023-03-02T08:58:35.259Z,18031.00
2023-03-02T08:59:35.016Z,18725.00
2023-03-02T09:00:34.892Z,18191.00
2023-03-02T09:01:35.370Z,18930.00
2023-03-02T09:02:34.898Z,16239.00
2023-03-02T09:03:34.894Z,13822.00
2023-03-02T09:04:35.227Z,14549.00
2023-03-02T09:05:35.133Z,16427.00
2023-03-02T09:06:34.896Z,17136.00
2023-03-02T09:07:34.895Z,17166.00
2023-03-02T09:08:34.895Z,18924.00
2023-03-02T09:09:34.777Z,19846.00
2023-03-02T09:10:35.377Z,18498.00
2023-03-02T09:11:35.132Z,18388.00
2023-03-02T09:12:34.779Z,17834.00
2023-03-02T09:13:34.776Z,17570.00
2023-03-02T09:14:34.776Z,15035.00
2023-03-02T09:15:34.784Z,15804.00
2023-03-02T09:16:34.837Z,16950.00
2023-03-02T09:17:34.778Z,19602.00
2023-03-02T09:18:34.661Z,21166.00
2023-03-02T09:19:34.782Z,21904.00
2023-03-02T09:20:34.662Z,23538.00
2023-03-02T09:21:34.955Z,21277.00
2023-03-02T09:22:34.669Z,19745.00
2023-03-02T09:23:34.661Z,19521.00
2023-03-02T09:24:34.670Z,19428.00
2023-03-02T09:25:34.667Z,20789.00
2023-03-02T09:26:34.670Z,21635.00
2023-03-02T09:27:34.586Z,25067.00
2023-03-02T09:28:34.800Z,27972.00
2023-03-02T09:29:34.545Z,24566.00
2023-03-02T09:30:34.554Z,23184.00
2023-03-02T09:31:34.941Z,23152.00
2023-03-02T09:32:34.686Z,22076.00
2023-03-02T09:33:34.562Z,23396.00
2023-03-02T09:34:34.548Z,26903.00
2023-03-02T09:35:34.552Z,25651.00
2023-03-02T09:36:34.441Z,24235.00
2023-03-02T09:37:34.472Z,26368.00
2023-03-02T09:38:34.446Z,27926.00
2023-03-02T09:39:34.434Z,21144.00
2023-03-02T09:40:34.586Z,14784.00
2023-03-02T09:41:34.794Z,9855.00
2023-03-02T09:42:43.595Z,9293.00
2023-03-02T09:43:34.433Z,8635.00
2023-03-02T09:44:34.315Z,8303.00
2023-03-02T09:45:34.384Z,8026.00
2023-03-02T09:46:34.320Z,7905.00
2023-03-02T09:47:36.034Z,7817.00
2023-03-02T09:48:34.316Z,7701.00
2023-03-02T09:49:34.581Z,7643.00
2023-03-02T09:50:41.037Z,7601.00
2023-03-02T09:51:35.880Z,7562.00
2023-03-02T09:52:34.202Z,7551.00
2023-03-02T09:53:34.197Z,7536.00
2023-03-02T09:54:34.255Z,7553.00
2023-03-02T09:55:34.198Z,7507.00
2023-03-02T09:56:34.414Z,7546.00
2023-03-02T09:57:34.200Z,7559.00
2023-03-02T09:58:34.206Z,7561.00
2023-03-02T09:59:34.199Z,7520.00
2023-03-02T10:00:34.199Z,7583.00
2023-03-02T10:01:34.085Z,7615.00
2023-03-02T10:02:34.084Z,7641.00
2023-03-02T10:03:34.201Z,7641.00
2023-03-02T10:04:34.151Z,7680.00
2023-03-02T10:05:34.084Z,7730.00
2023-03-02T10:06:34.394Z,7785.00
2023-03-02T10:07:34.083Z,7830.00
2023-03-02T10:08:34.111Z,7879.00
2023-03-02T10:09:33.970Z,7914.00
2023-03-02T10:10:34.204Z,7917.00
2023-03-02T10:11:34.085Z,4249.00
2023-03-02T10:12:33.965Z,5172.00
2023-03-02T10:13:33.965Z,9901.00
2023-03-02T10:14:33.993Z,81362.00
2023-03-02T10:15:33.966Z,78229.00
2023-03-02T10:16:34.334Z,77976.00
2023-03-02T10:17:34.001Z,79505.00
2023-03-02T10:18:33.941Z,77129.00
2023-03-02T10:19:33.874Z,75793.00
2023-03-02T10:20:34.800Z,75389.00
2023-03-02T10:21:33.849Z,74195.00
2023-03-02T10:22:33.848Z,73314.00
2023-03-02T10:23:33.847Z,73816.00
2023-03-02T10:24:33.848Z,73130.00
2023-03-02T10:25:33.853Z,72266.00
2023-03-02T10:26:34.187Z,70477.00
2023-03-02T10:27:33.742Z,68727.00
2023-03-02T10:28:33.760Z,68907.00
2023-03-02T10:29:33.733Z,69806.00
2023-03-02T10:30:33.780Z,70497.00
2023-03-02T10:31:33.736Z,74476.00
2023-03-02T10:32:33.822Z,77562.00
2023-03-02T10:33:33.736Z,76535.00
2023-03-02T10:34:33.734Z,77814.00
2023-03-02T10:35:33.761Z,77847.00
2023-03-02T10:36:34.085Z,77568.00
2023-03-02T10:37:33.649Z,75150.00
2023-03-02T10:38:33.617Z,75396.00
2023-03-02T10:39:33.617Z,78417.00
2023-03-02T10:40:33.617Z,77973.00
2023-03-02T10:41:33.620Z,77075.00
2023-03-02T10:42:33.647Z,75286.00
2023-03-02T10:43:33.646Z,73424.00
2023-03-02T10:44:33.497Z,70827.00
2023-03-02T10:45:33.498Z,69359.00
2023-03-02T10:46:33.832Z,69910.00
2023-03-02T10:47:33.500Z,69931.00
2023-03-02T10:48:33.498Z,70003.00
2023-03-02T10:49:33.500Z,68748.00
2023-03-02T10:50:33.498Z,67992.00
2023-03-02T10:51:33.500Z,68948.00
2023-03-02T10:52:33.513Z,68954.00
2023-03-02T10:53:33.383Z,67763.00
2023-03-02T10:54:33.380Z,66566.00
2023-03-02T10:55:33.421Z,37979.00
2023-03-02T10:56:33.755Z,33701.00
2023-03-02T10:57:33.407Z,69394.00
2023-03-02T10:58:33.386Z,69527.00
2023-03-02T10:59:33.382Z,69945.00
2023-03-02T11:00:33.386Z,69398.00
2023-03-02T11:01:33.398Z,68491.00
2023-03-02T11:02:33.269Z,32035.00
2023-03-02T11:03:33.263Z,28550.00
2023-03-02T11:04:33.360Z,27147.00
2023-03-02T11:05:33.271Z,69639.00
2023-03-02T11:06:33.543Z,32624.00
2023-03-02T11:07:33.266Z,29277.00
2023-03-02T11:08:33.267Z,29448.00
2023-03-02T11:09:33.271Z,70606.00
2023-03-02T11:10:33.269Z,71541.00
2023-03-02T11:11:33.601Z,71652.00
2023-03-02T11:12:33.149Z,72356.00
2023-03-02T11:13:33.165Z,72965.00
2023-03-02T11:14:33.149Z,72833.00
2023-03-02T11:15:33.154Z,73000.00
2023-03-02T11:16:33.843Z,72373.00
2023-03-02T11:17:33.152Z,71806.00
2023-03-02T11:18:33.157Z,73052.00
2023-03-02T11:19:33.037Z,72254.00
2023-03-02T11:20:33.153Z,70570.00
2023-03-02T11:21:33.347Z,32304.00
2023-03-02T11:22:33.033Z,33112.00
2023-03-02T11:23:33.043Z,30619.00
2023-03-02T11:24:33.036Z,31308.00
2023-03-02T11:25:33.036Z,27812.00
2023-03-02T11:26:33.033Z,31545.00
2023-03-02T11:27:33.276Z,71691.00
2023-03-02T11:28:32.919Z,71467.00
2023-03-02T11:29:32.915Z,69890.00
2023-03-02T11:30:33.098Z,32152.00
2023-03-02T11:31:33.229Z,31870.00
2023-03-02T11:32:32.937Z,28812.00
2023-03-02T11:33:32.961Z,28984.00
2023-03-02T11:34:32.918Z,32371.00
2023-03-02T11:35:32.965Z,32974.00
2023-03-02T11:36:33.407Z,29278.00
2023-03-02T11:37:33.165Z,30909.00
2023-03-02T11:38:32.800Z,30772.00
2023-03-02T11:39:32.805Z,31264.00
2023-03-02T11:40:32.798Z,30492.00
2023-03-02T11:41:33.068Z,31586.00
2023-03-02T11:42:32.847Z,32968.00
2023-03-02T11:43:32.808Z,30020.00
2023-03-02T11:44:32.804Z,29004.00
2023-03-02T11:45:32.804Z,35142.00
2023-03-02T11:46:32.851Z,35464.00
2023-03-02T11:47:32.695Z,28093.00
2023-03-02T11:48:32.699Z,26629.00
2023-03-02T11:49:32.701Z,29137.00
2023-03-02T11:50:32.689Z,31649.00
2023-03-02T11:51:32.978Z,28713.00
2023-03-02T11:52:32.814Z,72904.00
2023-03-02T11:53:32.775Z,72899.00
2023-03-02T11:54:32.572Z,72779.00
2023-03-02T11:55:32.572Z,72464.00
2023-03-02T11:56:32.691Z,71919.00
2023-03-02T11:57:32.572Z,72083.00
2023-03-02T11:58:32.573Z,73263.00
2023-03-02T11:59:32.571Z,72760.00
2023-03-02T12:00:32.625Z,71541.00
2023-03-02T12:01:32.773Z,30777.00
2023-03-02T12:02:32.694Z,70802.00
2023-03-02T12:03:32.460Z,34350.00
2023-03-02T12:04:32.475Z,27101.00
2023-03-02T12:05:32.475Z,32562.00
2023-03-02T12:06:32.852Z,33014.00
2023-03-02T12:07:32.467Z,29350.00
2023-03-02T12:08:32.460Z,72627.00
2023-03-02T12:09:32.457Z,72224.00
2023-03-02T12:10:32.459Z,71994.00
2023-03-02T12:11:32.460Z,71787.00
2023-03-02T12:12:32.348Z,33258.00
2023-03-02T12:13:32.347Z,33102.00
2023-03-02T12:14:32.352Z,30978.00
2023-03-02T12:15:32.338Z,31490.00
2023-03-02T12:16:32.682Z,33569.00
2023-03-02T12:17:32.378Z,31319.00
2023-03-02T12:18:32.349Z,32445.00
2023-03-02T12:19:32.356Z,32552.00
2023-03-02T12:20:33.307Z,31674.00
2023-03-02T12:21:32.344Z,30455.00
2023-03-02T12:22:32.225Z,33419.00
2023-03-02T12:23:32.227Z,32915.00
2023-03-02T12:24:32.245Z,34908.00
2023-03-02T12:25:32.227Z,32945.00
2023-03-02T12:26:32.556Z,25047.00
2023-03-02T12:27:32.249Z,32970.00
2023-03-02T12:28:32.224Z,34230.00
2023-03-02T12:29:32.151Z,29426.00
2023-03-02T12:30:32.107Z,27149.00
2023-03-02T12:31:32.140Z,29315.00
2023-03-02T12:32:32.136Z,27798.00
2023-03-02T12:33:32.123Z,31437.00
2023-03-02T12:34:32.391Z,30068.00